createdAt,value
2022-11-16T00:00:00.368Z,10.33
2022-11-16T00:02:34.263Z,12.27
2022-11-16T00:05:02.332Z,10.73
2022-11-16T00:07:30.508Z,8.20
2022-11-16T00:09:58.600Z,9.10
2022-11-16T00:12:26.519Z,9.70
2022-11-16T00:14:54.510Z,7.47
2022-11-16T00:17:22.497Z,8.77
2022-11-16T00:19:51.905Z,17.17
2022-11-16T00:22:19.907Z,13.93
2022-11-16T00:24:48.200Z,9.37
2022-11-16T00:27:16.131Z,11.53
2022-11-16T00:29:44.115Z,12.50
2022-11-16T00:32:12.407Z,8.23
2022-11-16T00:34:40.763Z,9.70
2022-11-16T00:37:10.235Z,9.87
2022-11-16T00:39:38.326Z,11.37
2022-11-16T00:42:06.477Z,9.17
2022-11-16T00:44:34.522Z,8.03
2022-11-16T00:47:02.698Z,9.73
2022-11-16T00:49:30.716Z,7.70
2022-11-16T00:51:59.063Z,6.23
2022-11-16T00:54:28.645Z,6.63
2022-11-16T00:56:57.011Z,6.23
2022-11-16T00:59:25.470Z,9.27
2022-11-16T01:01:57.466Z,8.50
2022-11-16T01:04:25.585Z,9.87
2022-11-16T01:06:54.003Z,8.30
2022-11-16T01:09:25.411Z,7.60
2022-11-16T01:12:09.895Z,10.67
2022-11-16T01:14:40.298Z,7.57
2022-11-16T01:17:08.300Z,9.27
2022-11-16T01:19:37.629Z,9.23
2022-11-16T01:22:06.095Z,8.77
2022-11-16T01:24:34.366Z,8.60
2022-11-16T01:27:03.764Z,7.10
2022-11-16T01:29:35.130Z,7.70
2022-11-16T01:32:03.342Z,6.50
2022-11-16T01:34:32.715Z,7.00
2022-11-16T01:37:06.839Z,7.70
2022-11-16T01:39:38.993Z,7.47
2022-11-16T01:42:17.944Z,7.10
2022-11-16T01:44:59.478Z,4.83
2022-11-16T01:47:27.910Z,5.33
2022-11-16T01:50:04.019Z,5.53
2022-11-16T01:52:37.847Z,5.30
2022-11-16T01:55:07.183Z,4.67
2022-11-16T01:57:49.877Z,7.70
2022-11-16T02:00:19.138Z,11.23
2022-11-16T02:03:00.758Z,4.73
2022-11-16T02:06:12.665Z,4.73
2022-11-16T02:09:13.806Z,4.70
2022-11-16T02:13:01.413Z,4.47
2022-11-16T02:15:45.249Z,9.30
2022-11-16T02:18:31.444Z,7.27
2022-11-16T02:21:18.930Z,6.00
2022-11-16T02:24:13.631Z,5.10
2022-11-16T02:27:04.618Z,9.77
2022-11-16T02:29:38.665Z,7.27
2022-11-16T02:32:13.345Z,6.40
2022-11-16T02:34:45.982Z,7.63
2022-11-16T02:37:18.086Z,6.83
2022-11-16T02:39:49.244Z,5.13
2022-11-16T02:42:21.649Z,5.33
2022-11-16T02:44:55.725Z,10.33
2022-11-16T02:47:28.427Z,7.13
2022-11-16T02:50:01.527Z,6.77
2022-11-16T02:52:29.991Z,8.40
2022-11-16T02:54:58.212Z,8.63
2022-11-16T02:57:45.392Z,6.70
2022-11-16T03:00:22.060Z,7.50
2022-11-16T03:03:00.604Z,7.07
2022-11-16T03:05:34.018Z,7.67
2022-11-16T03:08:17.705Z,8.03
2022-11-16T03:11:07.153Z,6.40
2022-11-16T03:13:37.346Z,7.87
2022-11-16T03:16:12.311Z,8.73
2022-11-16T03:18:41.685Z,6.40
2022-11-16T03:21:18.702Z,7.40
2022-11-16T03:23:47.873Z,8.17
2022-11-16T03:26:19.791Z,7.70
2022-11-16T03:28:53.426Z,6.80
2022-11-16T03:31:29.119Z,5.60
2022-11-16T03:33:59.696Z,6.83
2022-11-16T03:36:32.218Z,9.03
2022-11-16T03:39:04.246Z,8.97
2022-11-16T03:41:38.636Z,6.13
2022-11-16T03:44:08.886Z,9.50
2022-11-16T03:46:38.508Z,7.30
2022-11-16T03:49:07.291Z,4.80
2022-11-16T03:51:37.797Z,5.10
2022-11-16T03:54:06.419Z,5.23
2022-11-16T03:56:35.910Z,7.03
2022-11-16T03:59:05.662Z,7.00
2022-11-16T04:01:33.663Z,5.00
2022-11-16T04:04:03.176Z,6.47
2022-11-16T04:06:49.081Z,6.87
2022-11-16T04:09:46.249Z,6.00
2022-11-16T04:12:31.808Z,5.90
2022-11-16T04:15:17.150Z,6.10
2022-11-16T04:18:02.577Z,6.83
2022-11-16T04:20:49.563Z,7.03
2022-11-16T04:23:31.697Z,7.13
2022-11-16T04:26:01.128Z,6.17
2022-11-16T04:28:30.650Z,7.33
2022-11-16T04:31:22.864Z,7.60
2022-11-16T04:34:16.227Z,9.87
2022-11-16T04:37:07.836Z,8.53
2022-11-16T04:39:36.469Z,8.23
2022-11-16T04:42:15.367Z,8.80
2022-11-16T04:45:02.916Z,5.80
2022-11-16T04:47:37.312Z,7.07
2022-11-16T04:50:07.005Z,6.80
2022-11-16T04:52:36.701Z,9.90
2022-11-16T04:55:07.136Z,6.00
2022-11-16T04:57:35.130Z,6.13
2022-11-16T05:00:05.904Z,12.67
2022-11-16T05:02:36.107Z,7.93
2022-11-16T05:05:04.472Z,10.33
2022-11-16T05:07:32.828Z,8.67
2022-11-16T05:10:09.453Z,8.23
2022-11-16T05:12:37.506Z,6.80
2022-11-16T05:15:08.722Z,7.93
2022-11-16T05:17:36.959Z,8.70
2022-11-16T05:20:28.268Z,11.33
2022-11-16T05:23:01.587Z,22.30
2022-11-16T05:25:36.948Z,17.83
2022-11-16T05:28:08.187Z,19.43
2022-11-16T05:30:40.663Z,15.37
2022-11-16T05:33:08.782Z,14.73
2022-11-16T05:35:40.983Z,9.87
2022-11-16T05:38:09.195Z,7.83
2022-11-16T05:40:43.862Z,12.87
2022-11-16T05:43:12.027Z,9.83
2022-11-16T05:45:48.577Z,9.17
2022-11-16T05:48:17.133Z,10.43
2022-11-16T05:50:45.544Z,9.90
2022-11-16T05:53:20.663Z,12.73
2022-11-16T05:55:51.350Z,6.73
2022-11-16T05:58:20.555Z,7.90
2022-11-16T06:00:51.050Z,6.50
2022-11-16T06:03:20.607Z,7.83
2022-11-16T06:05:48.630Z,8.73
2022-11-16T06:08:18.320Z,10.73
2022-11-16T06:10:47.275Z,8.73
2022-11-16T06:13:16.611Z,8.07
2022-11-16T06:15:50.199Z,4.93
2022-11-16T06:18:19.073Z,4.30
2022-11-16T06:20:48.827Z,6.77
2022-11-16T06:23:18.515Z,6.57
2022-11-16T06:25:47.180Z,5.90
2022-11-16T06:28:16.581Z,5.93
2022-11-16T06:30:45.081Z,5.90
2022-11-16T06:33:13.233Z,5.87
2022-11-16T06:35:41.655Z,10.73
2022-11-16T06:38:11.779Z,4.93
2022-11-16T06:40:39.802Z,6.00
2022-11-16T06:43:07.922Z,5.80
2022-11-16T06:45:37.635Z,5.80
2022-11-16T06:48:06.447Z,7.37
2022-11-16T06:50:34.551Z,9.03
2022-11-16T06:53:02.599Z,13.37
2022-11-16T06:55:31.011Z,9.17
2022-11-16T06:57:59.079Z,11.63
2022-11-16T07:00:27.960Z,12.07
2022-11-16T07:02:58.722Z,10.10
2022-11-16T07:05:26.719Z,4.23
2022-11-16T07:07:56.502Z,4.43
2022-11-16T07:10:26.530Z,4.50
2022-11-16T07:12:55.578Z,4.33
2022-11-16T07:15:24.752Z,3.47
2022-11-16T07:17:52.859Z,5.87
2022-11-16T07:20:23.111Z,1.33
2022-11-16T07:22:51.929Z,1.23
2022-11-16T07:25:19.919Z,2.03
2022-11-16T07:27:48.690Z,4.97
2022-11-16T07:30:17.260Z,4.27
2022-11-16T07:33:00.739Z,6.30
2022-11-16T07:36:03.452Z,1.60
2022-11-16T07:38:33.300Z,4.27
2022-11-16T07:41:02.265Z,1.37
2022-11-16T07:43:35.132Z,0.47
2022-11-16T07:49:03.994Z,4.33
2022-11-16T07:51:55.840Z,1.73
2022-11-16T07:54:46.711Z,2.37
2022-11-16T07:57:16.308Z,3.93
2022-11-16T07:59:44.985Z,2.63
2022-11-16T08:02:13.469Z,1.77
2022-11-16T08:04:42.891Z,5.80
2022-11-16T08:07:12.400Z,4.63
2022-11-16T08:09:50.582Z,3.47
2022-11-16T08:12:18.921Z,2.93
2022-11-16T08:14:48.166Z,6.23
2022-11-16T08:17:16.374Z,1.40
2022-11-16T08:19:45.178Z,2.00
2022-11-16T08:22:17.619Z,2.33
2022-11-16T08:24:47.313Z,2.33
2022-11-16T08:27:16.989Z,2.57
2022-11-16T08:29:47.973Z,3.03
2022-11-16T08:32:16.532Z,3.50
2022-11-16T08:34:45.232Z,1.23
2022-11-16T08:37:14.460Z,4.80
2022-11-16T08:39:48.209Z,1.80
2022-11-16T08:42:16.343Z,4.27
2022-11-16T08:44:48.127Z,4.87
2022-11-16T08:47:19.505Z,2.07
2022-11-16T08:49:56.434Z,6.50
2022-11-16T08:52:26.781Z,1.70
2022-11-16T08:54:57.969Z,10.13
2022-11-16T08:57:26.457Z,44.50
2022-11-16T08:59:59.188Z,16.10
2022-11-16T09:02:27.637Z,38.43
2022-11-16T09:04:55.604Z,19.87
2022-11-16T09:07:23.781Z,13.27
2022-11-16T09:09:51.765Z,8.47
2022-11-16T09:12:21.068Z,21.47
2022-11-16T09:14:49.093Z,10.53
2022-11-16T09:17:22.787Z,11.73
2022-11-16T09:19:51.159Z,2.97
2022-11-16T09:22:19.289Z,4.37
2022-11-16T09:24:47.498Z,4.73
2022-11-16T09:27:16.476Z,5.20
2022-11-16T09:29:45.855Z,17.33
2022-11-16T09:32:13.857Z,14.53
2022-11-16T09:34:41.975Z,5.33
2022-11-16T09:37:10.675Z,9.20
2022-11-16T09:39:38.731Z,10.87
2022-11-16T09:42:19.761Z,7.00
2022-11-16T09:45:05.607Z,7.10
2022-11-16T09:47:45.779Z,2.80
2022-11-16T09:50:26.603Z,2.77
2022-11-16T09:52:58.983Z,4.47
2022-11-16T09:55:33.286Z,2.23
2022-11-16T09:58:04.286Z,3.17
2022-11-16T10:00:36.110Z,1.97
2022-11-16T10:03:08.025Z,2.73
2022-11-16T10:05:41.874Z,1.57
2022-11-16T10:08:16.203Z,1.87
2022-11-16T10:10:52.749Z,2.10
2022-11-16T10:13:35.821Z,5.43
2022-11-16T10:16:14.973Z,1.33
2022-11-16T10:18:55.100Z,3.40
2022-11-16T10:21:37.895Z,3.20
2022-11-16T10:24:34.234Z,2.10
2022-11-16T10:27:22.005Z,0.97
2022-11-16T10:29:58.437Z,1.27
2022-11-16T10:32:32.216Z,4.47
2022-11-16T10:35:05.317Z,4.70
2022-11-16T10:37:36.945Z,8.90
2022-11-16T10:40:18.665Z,2.47
2022-11-16T10:42:54.862Z,2.37
2022-11-16T10:45:26.498Z,3.73
2022-11-16T10:48:02.628Z,3.73
2022-11-16T10:50:36.221Z,1.70
2022-11-16T10:53:04.471Z,3.30
2022-11-16T10:55:32.502Z,3.87
2022-11-16T10:58:01.963Z,2.13
2022-11-16T11:00:44.134Z,3.53
2022-11-16T11:03:14.188Z,2.70
2022-11-16T11:05:54.510Z,1.23
2022-11-16T11:08:27.842Z,7.13
2022-11-16T11:11:01.783Z,2.80
2022-11-16T11:13:30.159Z,1.40
2022-11-16T11:16:17.144Z,0.30
2022-11-16T11:18:46.605Z,1.23
2022-11-16T11:21:19.777Z,1.90
2022-11-16T11:23:50.816Z,0.70
2022-11-16T11:26:36.513Z,6.10
2022-11-16T11:29:18.147Z,3.47
2022-11-16T11:31:50.239Z,3.50
2022-11-16T11:34:22.808Z,1.27
2022-11-16T11:36:55.073Z,0.83
2022-11-16T11:39:34.370Z,20.20
2022-11-16T11:42:05.851Z,2.10
2022-11-16T11:44:44.713Z,1.43
2022-11-16T11:47:57.439Z,3.00
2022-11-16T11:50:39.950Z,1.43
2022-11-16T11:53:15.424Z,5.47
2022-11-16T11:55:43.641Z,2.50
2022-11-16T11:58:17.632Z,1.60
2022-11-16T12:00:57.273Z,5.23
2022-11-16T12:03:54.979Z,2.60
2022-11-16T12:06:32.483Z,2.20
2022-11-16T12:09:30.616Z,1.77
2022-11-16T12:12:15.674Z,3.10
2022-11-16T12:15:00.785Z,4.60
2022-11-16T12:17:36.211Z,5.17
2022-11-16T12:20:22.974Z,2.50
2022-11-16T12:23:05.707Z,5.23
2022-11-16T12:25:42.684Z,2.43
2022-11-16T12:29:25.187Z,3.43
2022-11-16T12:32:12.501Z,4.40
2022-11-16T12:34:53.477Z,4.67
2022-11-16T12:37:28.985Z,1.50
2022-11-16T12:40:19.402Z,4.87
2022-11-16T12:42:55.462Z,7.10
2022-11-16T12:45:38.764Z,1.83
2022-11-16T12:48:22.083Z,5.43
2022-11-16T12:50:57.876Z,2.47
2022-11-16T12:53:55.103Z,2.43
2022-11-16T12:56:34.427Z,3.40
2022-11-16T12:59:18.785Z,2.83
2022-11-16T13:02:00.279Z,7.50
2022-11-16T13:04:34.496Z,3.37
2022-11-16T13:07:11.413Z,6.23
2022-11-16T13:09:44.526Z,1.03
2022-11-16T13:12:17.254Z,2.07
2022-11-16T13:14:48.244Z,1.77
2022-11-16T13:17:21.933Z,2.53
2022-11-16T13:20:18.846Z,3.20
2022-11-16T13:22:55.813Z,3.50
2022-11-16T13:25:30.251Z,2.63
2022-11-16T13:28:06.147Z,2.23
2022-11-16T13:30:44.287Z,4.00
2022-11-16T13:33:28.866Z,3.23
2022-11-16T13:35:56.934Z,3.37
2022-11-16T13:38:53.212Z,1.13
2022-11-16T13:41:28.792Z,1.43
2022-11-16T13:43:58.906Z,1.53
2022-11-16T13:46:55.431Z,3.83
2022-11-16T13:49:28.398Z,6.33
2022-11-16T13:52:11.319Z,2.60
2022-11-16T13:54:50.545Z,3.10
2022-11-16T13:57:25.710Z,1.27
2022-11-16T14:00:10.149Z,5.50
2022-11-16T14:02:39.669Z,2.30
2022-11-16T14:05:15.911Z,1.97
2022-11-16T14:07:47.110Z,2.07
2022-11-16T14:11:02.311Z,5.87
2022-11-16T14:13:39.411Z,1.60
2022-11-16T14:16:47.071Z,4.63
2022-11-16T14:19:56.027Z,6.10
2022-11-16T14:22:51.289Z,2.07
2022-11-16T14:25:33.510Z,4.03
2022-11-16T14:28:14.379Z,7.80
2022-11-16T14:30:53.814Z,4.50
2022-11-16T14:33:32.460Z,4.90
2022-11-16T14:36:03.480Z,2.00
2022-11-16T14:38:34.099Z,3.63
2022-11-16T14:41:05.187Z,5.17
2022-11-16T14:43:40.147Z,7.83
2022-11-16T14:46:11.024Z,1.27
2022-11-16T14:48:45.221Z,5.23
2022-11-16T14:51:18.506Z,5.50
2022-11-16T14:53:50.033Z,7.10
2022-11-16T14:56:19.876Z,4.03
2022-11-16T14:58:53.095Z,3.43
2022-11-16T15:01:23.721Z,4.37
2022-11-16T15:03:56.148Z,2.63
2022-11-16T15:06:27.269Z,5.47
2022-11-16T15:09:00.221Z,2.93
2022-11-16T15:11:44.957Z,7.87
2022-11-16T15:14:19.401Z,6.23
2022-11-16T15:16:51.587Z,9.40
2022-11-16T15:19:19.912Z,4.33
2022-11-16T15:21:54.303Z,3.33
2022-11-16T15:24:31.976Z,3.53
2022-11-16T15:27:11.598Z,6.97
2022-11-16T15:29:39.984Z,2.83
2022-11-16T15:32:14.119Z,4.13
2022-11-16T15:34:42.055Z,6.53
2022-11-16T15:37:15.187Z,3.80
2022-11-16T15:39:44.223Z,8.20
2022-11-16T15:42:16.606Z,8.97
2022-11-16T15:44:45.209Z,7.97
2022-11-16T15:47:14.871Z,13.67
2022-11-16T15:49:44.696Z,8.27
2022-11-16T15:52:14.002Z,5.90
2022-11-16T15:54:59.294Z,7.47
2022-11-16T15:57:27.175Z,14.53
2022-11-16T15:59:57.580Z,5.90
2022-11-16T16:02:28.507Z,7.57
2022-11-16T16:04:56.514Z,5.13
2022-11-16T16:07:40.019Z,13.93
2022-11-16T16:10:24.599Z,4.70
2022-11-16T16:12:54.341Z,4.80
2022-11-16T16:15:25.523Z,10.20
2022-11-16T16:17:54.912Z,5.90
2022-11-16T16:20:25.497Z,4.87
2022-11-16T16:22:55.358Z,6.40
2022-11-16T16:25:28.637Z,3.33
2022-11-16T16:27:56.701Z,11.07
2022-11-16T16:30:24.690Z,6.57
2022-11-16T16:32:52.968Z,8.13
2022-11-16T16:35:22.968Z,7.43
2022-11-16T16:37:52.407Z,6.60
2022-11-16T16:40:21.705Z,11.43
2022-11-16T16:42:50.109Z,6.30
2022-11-16T16:45:20.645Z,10.47
2022-11-16T16:47:50.348Z,12.60
2022-11-16T16:50:18.579Z,13.17
2022-11-16T16:52:46.659Z,19.80
2022-11-16T16:55:14.893Z,14.60
2022-11-16T16:57:44.215Z,15.20
2022-11-16T17:00:13.113Z,8.40
2022-11-16T17:02:41.056Z,7.37
2022-11-16T17:05:09.859Z,8.70
2022-11-16T17:07:37.964Z,7.10
2022-11-16T17:10:06.982Z,10.20
2022-11-16T17:12:35.303Z,7.83
2022-11-16T17:15:05.168Z,10.87
2022-11-16T17:17:33.220Z,13.10
2022-11-16T17:20:01.137Z,9.67
2022-11-16T17:22:29.115Z,11.03
2022-11-16T17:24:57.200Z,19.97
2022-11-16T17:27:25.190Z,15.83
2022-11-16T17:29:53.214Z,21.63
2022-11-16T17:32:22.574Z,24.40
2022-11-16T17:34:50.617Z,19.30
2022-11-16T17:37:18.614Z,18.07
2022-11-16T17:39:46.641Z,13.93
2022-11-16T17:42:14.600Z,18.83
2022-11-16T17:44:42.708Z,21.10
2022-11-16T17:47:11.950Z,16.37
2022-11-16T17:49:41.706Z,17.10
2022-11-16T17:52:09.700Z,11.93
2022-11-16T17:54:37.833Z,14.93
2022-11-16T17:57:06.160Z,13.53
2022-11-16T17:59:34.309Z,29.17
2022-11-16T18:02:02.517Z,22.03
2022-11-16T18:04:31.047Z,18.47
2022-11-16T18:07:01.292Z,15.10
2022-11-16T18:09:29.471Z,12.97
2022-11-16T18:11:58.451Z,10.33
2022-11-16T18:14:28.019Z,10.33
2022-11-16T18:16:56.111Z,9.03
2022-11-16T18:19:24.953Z,6.90
2022-11-16T18:21:54.504Z,16.70
2022-11-16T18:24:24.520Z,10.53
2022-11-16T18:26:52.815Z,17.87
2022-11-16T18:29:20.973Z,11.83
2022-11-16T18:31:48.963Z,12.13
2022-11-16T18:34:17.084Z,16.77
2022-11-16T18:36:46.368Z,17.53
2022-11-16T18:39:14.327Z,17.63
2022-11-16T18:41:53.280Z,15.33
2022-11-16T18:44:22.570Z,15.67
2022-11-16T18:46:50.585Z,13.30
2022-11-16T18:49:18.585Z,15.20
2022-11-16T18:51:46.681Z,15.53
2022-11-16T18:54:14.656Z,13.30
2022-11-16T18:56:42.561Z,17.23
2022-11-16T18:59:11.905Z,17.63
2022-11-16T19:01:40.077Z,15.93
2022-11-16T19:04:08.904Z,22.07
2022-11-16T19:06:37.091Z,20.97
2022-11-16T19:09:09.608Z,19.57
2022-11-16T19:11:37.730Z,24.27
2022-11-16T19:14:07.678Z,57.20
2022-11-16T19:16:39.655Z,27.10
2022-11-16T19:19:11.631Z,27.90
2022-11-16T19:21:39.984Z,28.43
2022-11-16T19:24:08.536Z,24.07
2022-11-16T19:26:36.642Z,32.67
2022-11-16T19:29:04.646Z,27.17
2022-11-16T19:31:33.920Z,24.07
2022-11-16T19:34:05.595Z,24.97
2022-11-16T19:36:35.971Z,25.37
2022-11-16T19:39:05.929Z,27.30
2022-11-16T19:41:34.123Z,23.77
2022-11-16T19:44:02.446Z,123.73
2022-11-16T19:46:32.443Z,40.90
2022-11-16T19:49:01.198Z,22.30
2022-11-16T19:51:32.225Z,23.53
2022-11-16T19:54:00.863Z,23.10
2022-11-16T19:56:29.655Z,24.03
2022-11-16T19:58:58.208Z,16.07
2022-11-16T20:01:29.235Z,18.00
2022-11-16T20:04:00.018Z,19.77
2022-11-16T20:06:30.697Z,16.73
2022-11-16T20:09:02.862Z,24.33
2022-11-16T20:11:33.838Z,23.13
2022-11-16T20:14:03.104Z,26.60
2022-11-16T20:16:38.116Z,24.67
2022-11-16T20:19:06.824Z,19.83
2022-11-16T20:21:38.168Z,21.00
2022-11-16T20:24:08.679Z,22.97
2022-11-16T20:26:37.937Z,26.80
2022-11-16T20:29:06.002Z,18.27
2022-11-16T20:31:35.077Z,18.30
2022-11-16T20:34:05.437Z,20.30
2022-11-16T20:36:35.088Z,20.90
2022-11-16T20:39:04.605Z,19.60
2022-11-16T20:41:34.182Z,19.13
2022-11-16T20:44:03.324Z,28.87
2022-11-16T20:46:33.091Z,18.10
2022-11-16T20:49:01.827Z,16.30
2022-11-16T20:51:30.525Z,19.87
2022-11-16T20:53:58.976Z,14.13
2022-11-16T20:56:28.383Z,20.53
2022-11-16T20:58:58.155Z,12.70
2022-11-16T21:01:31.442Z,18.60
2022-11-16T21:04:01.061Z,22.13
2022-11-16T21:06:29.419Z,25.63
2022-11-16T21:08:58.109Z,20.60
2022-11-16T21:11:29.850Z,17.27
2022-11-16T21:14:15.037Z,13.87
2022-11-16T21:16:43.422Z,19.73
2022-11-16T21:19:12.726Z,17.50
2022-11-16T21:21:41.515Z,16.20
2022-11-16T21:24:10.226Z,22.27
2022-11-16T21:26:39.513Z,14.27
2022-11-16T21:29:07.599Z,14.63
2022-11-16T21:31:37.001Z,16.47
2022-11-16T21:34:05.899Z,11.93
2022-11-16T21:36:34.281Z,13.53
2022-11-16T21:39:02.370Z,16.60
2022-11-16T21:41:30.323Z,18.07
2022-11-16T21:44:00.188Z,13.57
2022-11-16T21:46:28.587Z,12.53
2022-11-16T21:48:57.214Z,15.97
2022-11-16T21:51:27.356Z,16.70
2022-11-16T21:53:55.934Z,15.97
2022-11-16T21:56:25.642Z,19.50
2022-11-16T21:58:54.500Z,16.70
2022-11-16T22:01:24.778Z,18.77
2022-11-16T22:04:06.830Z,20.27
2022-11-16T22:06:52.186Z,19.23
2022-11-16T22:09:20.153Z,18.00
2022-11-16T22:11:48.444Z,19.47
2022-11-16T22:14:16.542Z,21.00
2022-11-16T22:16:45.932Z,20.20
2022-11-16T22:19:14.050Z,22.40
2022-11-16T22:21:42.069Z,17.27
2022-11-16T22:24:10.031Z,17.30
2022-11-16T22:26:39.907Z,21.43
2022-11-16T22:29:07.923Z,24.07
2022-11-16T22:31:36.342Z,26.03
2022-11-16T22:34:05.822Z,19.83
2022-11-16T22:36:33.786Z,18.30
2022-11-16T22:39:01.961Z,19.90
2022-11-16T22:41:30.384Z,16.23
2022-11-16T22:43:58.457Z,11.03
2022-11-16T22:46:26.434Z,14.93
2022-11-16T22:48:54.386Z,17.70
2022-11-16T22:51:25.472Z,20.17
2022-11-16T22:53:54.204Z,14.90
2022-11-16T22:56:22.314Z,15.27
2022-11-16T22:58:50.354Z,17.80
2022-11-16T23:01:18.964Z,19.87
2022-11-16T23:03:47.554Z,18.60
2022-11-16T23:06:16.141Z,19.23
2022-11-16T23:08:45.669Z,18.17
2022-11-16T23:11:33.091Z,15.07
2022-11-16T23:14:18.926Z,13.97
2022-11-16T23:16:47.404Z,17.20
2022-11-16T23:19:35.511Z,14.50
2022-11-16T23:22:21.755Z,15.00
2022-11-16T23:25:08.768Z,16.40
2022-11-16T23:27:41.893Z,13.60
2022-11-16T23:30:13.062Z,16.03
2022-11-16T23:32:42.259Z,12.43
2022-11-16T23:35:11.265Z,15.73
2022-11-16T23:37:51.851Z,12.23
2022-11-16T23:40:21.961Z,18.50
2022-11-16T23:43:07.034Z,12.90
2022-11-16T23:45:35.020Z,20.13
2022-11-16T23:48:03.058Z,17.00
2022-11-16T23:50:31.023Z,12.03
2022-11-16T23:52:59.059Z,9.10
2022-11-16T23:55:28.768Z,9.40
2022-11-16T23:57:56.638Z,8.43
